This is the latest recevied weather packets stored in our database for station/object CRYC. If no packets are shown the sender has not sent any weather packets the latest 10 day(s).
| Time | Temp. | Humidity | Pressure | Rain* | Wind** | Luminosity | Snow |
|---|---|---|---|---|---|---|---|
| 1778177743 | 17.78° C | - | - | 0 mm | 0 m/s | - | - |
| 1778177139 | 16.67° C | - | - | 0 mm | 0 m/s | - | - |
| 1778176532 | 16.67° C | - | - | 0 mm | 0 m/s | - | - |
| 1778175927 | 17.22° C | - | - | 0 mm | 0 m/s | - | - |
| 1778175322 | 18.89° C | - | - | 0 mm | 0 m/s | - | - |
| 1778174716 | 16.67° C | - | - | 0 mm | 0.45 m/s, 63° | - | - |
| 1778174111 | 15.56° C | - | - | 0 mm | 1.79 m/s, 45° | - | - |
| 1778173507 | 16.67° C | - | - | 0 mm | 0 m/s | - | - |
| 1778172903 | 15° C | - | - | 0 mm | 1.34 m/s, 51° | - | - |
| 1778172303 | 15.56° C | - | - | 0 mm | 0 m/s | - | - |
| 1778171697 | 15.56° C | - | - | 0 mm | 0.89 m/s, 15° | - | - |
| 1778171095 | 14.44° C | - | - | 0 mm | 1.79 m/s, 32° | - | - |
| 1778170489 | 14.44° C | - | - | 0 mm | 0.89 m/s, 8° | - | - |
| 1778169887 | 14.44° C | - | - | 0 mm | 1.34 m/s, 68° | - | - |
| 1778169278 | 14.44° C | - | - | 0 mm | 0.45 m/s, 23° | - | - |
| 1778168677 | 15° C | - | - | 0 mm | 0.45 m/s, 31° | - | - |
| 1778168071 | 14.44° C | - | - | 0 mm | 0.45 m/s, 20° | - | - |
| 1778167466 | 14.44° C | - | - | 0 mm | 0.45 m/s, 30° | - | - |
| 1778166861 | 13.89° C | - | - | 0 mm | 0 m/s | - | - |
| 1778165650 | 14.44° C | - | - | 0 mm | 0.45 m/s, 63° | - | - |
| 1778165047 | 13.89° C | - | - | 0 mm | 0.89 m/s, 41° | - | - |
| 1778164443 | 13.33° C | - | - | 0 mm | 1.34 m/s, 18° | - | - |
| 1778163232 | 14.44° C | - | - | 0 mm | 1.34 m/s, 89° | - | - |
| 1778162630 | 13.89° C | - | - | 0 mm | 1.34 m/s, 46° | - | - |
| 1778162025 | 13.33° C | - | - | 0 mm | 1.79 m/s, 97° | - | - |
* Rain latest hour (hover to see other rain measurements)
** Current wind speed in m/s (hover to see current wind gust speed)